createdAt,value
2023-03-24T00:01:58.089Z,6.20
2023-03-24T00:04:27.960Z,6.43
2023-03-24T00:06:54.984Z,3.88
2023-03-24T00:09:25.562Z,4.82
2023-03-24T00:11:52.502Z,4.90
2023-03-24T00:14:19.626Z,3.28
2023-03-24T00:16:46.802Z,5.45
2023-03-24T00:19:15.312Z,5.10
2023-03-24T00:21:43.776Z,5.15
2023-03-24T00:24:12.838Z,3.80
2023-03-24T00:26:41.397Z,7.03
2023-03-24T00:29:11.212Z,5.20
2023-03-24T00:31:40.372Z,4.38
2023-03-24T00:34:09.155Z,3.45
2023-03-24T00:36:39.494Z,4.95
2023-03-24T00:39:07.967Z,6.03
2023-03-24T00:41:35.007Z,3.83
2023-03-24T00:44:06.151Z,4.95
2023-03-24T00:46:34.170Z,6.88
2023-03-24T00:49:06.980Z,5.65
2023-03-24T00:51:39.523Z,4.20
2023-03-24T00:56:44.105Z,4.10
2023-03-24T00:59:13.784Z,3.40
2023-03-24T01:01:41.976Z,3.70
2023-03-24T01:04:10.413Z,3.40
2023-03-24T01:06:38.257Z,4.95
2023-03-24T01:09:06.582Z,6.72
2023-03-24T01:11:38.938Z,4.03
2023-03-24T01:14:06.609Z,4.93
2023-03-24T01:16:33.550Z,5.47
2023-03-24T01:19:01.989Z,3.42
2023-03-24T01:21:29.132Z,4.05
2023-03-24T01:23:58.339Z,5.03
2023-03-24T01:26:26.328Z,6.22
2023-03-24T01:28:53.455Z,4.93
2023-03-24T01:31:22.504Z,5.35
2023-03-24T01:33:49.663Z,4.05
2023-03-24T01:36:16.837Z,3.20
2023-03-24T01:38:43.923Z,2.97
2023-03-24T01:41:12.512Z,5.65
2023-03-24T01:43:41.462Z,3.33
2023-03-24T01:46:13.839Z,4.40
2023-03-24T01:48:55.261Z,7.15
2023-03-24T01:51:48.745Z,4.60
2023-03-24T01:54:25.361Z,4.15
2023-03-24T01:57:08.778Z,6.70
2023-03-24T01:59:42.661Z,6.97
2023-03-24T02:02:14.730Z,6.30
2023-03-24T02:05:01.133Z,8.98
2023-03-24T02:07:59.136Z,6.93
2023-03-24T02:10:26.718Z,5.88
2023-03-24T02:12:59.212Z,5.32
2023-03-24T02:18:18.586Z,3.65
2023-03-24T02:21:18.353Z,6.93
2023-03-24T02:24:11.057Z,3.97
2023-03-24T02:26:45.684Z,2.90
2023-03-24T02:29:47.242Z,3.78
2023-03-24T02:32:40.262Z,2.20
2023-03-24T02:35:41.789Z,3.22
2023-03-24T02:38:22.970Z,5.00
2023-03-24T02:41:10.365Z,3.63
2023-03-24T02:44:00.970Z,4.15
2023-03-24T02:46:44.261Z,4.03
2023-03-24T02:49:37.861Z,6.40
2023-03-24T02:52:25.064Z,3.50
2023-03-24T02:55:05.353Z,3.80
2023-03-24T02:57:36.215Z,3.47
2023-03-24T03:00:32.721Z,5.70
2023-03-24T03:03:17.927Z,5.53
2023-03-24T03:06:14.159Z,5.63
2023-03-24T03:08:48.099Z,5.07
2023-03-24T03:11:17.868Z,6.72
2023-03-24T03:13:54.612Z,6.27
2023-03-24T03:16:38.364Z,4.07
2023-03-24T03:19:18.160Z,7.45
2023-03-24T03:21:53.123Z,3.55
2023-03-24T03:24:27.725Z,6.20
2023-03-24T03:27:03.437Z,7.65
2023-03-24T03:29:38.548Z,7.35
2023-03-24T03:32:10.073Z,8.30
2023-03-24T03:34:55.376Z,9.70
2023-03-24T03:38:03.012Z,11.48
2023-03-24T03:40:51.510Z,10.07
2023-03-24T03:43:22.798Z,12.05
2023-03-24T03:45:50.140Z,10.18
2023-03-24T03:48:26.933Z,10.63
2023-03-24T03:51:10.172Z,9.00
2023-03-24T03:53:50.296Z,10.57
2023-03-24T03:56:29.217Z,10.57
2023-03-24T03:59:29.717Z,13.77
2023-03-24T04:02:27.175Z,13.77
2023-03-24T04:05:16.106Z,12.82
2023-03-24T04:08:07.439Z,8.13
2023-03-24T04:11:24.000Z,11.15
2023-03-24T04:14:41.645Z,12.00
2023-03-24T04:17:28.535Z,10.88
2023-03-24T04:20:12.660Z,12.95
2023-03-24T04:23:05.221Z,11.38
2023-03-24T04:25:51.052Z,15.40
2023-03-24T04:28:27.719Z,12.48
2023-03-24T04:31:19.135Z,18.17
2023-03-24T04:34:04.381Z,14.10
2023-03-24T04:36:44.047Z,16.58
2023-03-24T04:39:31.143Z,13.50
2023-03-24T04:42:10.106Z,22.55
2023-03-24T04:44:41.641Z,15.85
2023-03-24T04:47:32.425Z,17.63
2023-03-24T04:50:31.746Z,15.05
2023-03-24T04:53:01.241Z,14.93
2023-03-24T04:55:38.190Z,16.10
2023-03-24T04:58:05.167Z,15.10
2023-03-24T05:00:38.430Z,12.63
2023-03-24T05:03:05.662Z,15.85
2023-03-24T05:05:33.162Z,19.27
2023-03-24T05:08:00.306Z,14.40
2023-03-24T05:10:28.361Z,17.85
2023-03-24T05:12:57.338Z,15.57
2023-03-24T05:15:27.568Z,12.73
2023-03-24T05:18:11.588Z,20.95
2023-03-24T05:20:39.944Z,16.73
2023-03-24T05:23:14.931Z,17.83
2023-03-24T05:25:46.460Z,17.38
2023-03-24T05:28:21.118Z,14.25
2023-03-24T05:30:51.069Z,16.95
2023-03-24T05:33:41.670Z,18.25
2023-03-24T05:36:13.881Z,15.85
2023-03-24T05:38:43.094Z,13.23
2023-03-24T05:41:10.073Z,9.75
2023-03-24T05:43:42.550Z,13.23
2023-03-24T05:46:16.123Z,12.98
2023-03-24T05:48:46.942Z,15.85
2023-03-24T05:51:18.763Z,13.80
2023-03-24T05:53:52.207Z,19.33
2023-03-24T05:59:22.803Z,24.35
2023-03-24T06:01:55.929Z,17.02
2023-03-24T06:04:31.609Z,23.02
2023-03-24T06:07:09.424Z,13.15
2023-03-24T06:09:42.431Z,16.00
2023-03-24T06:12:14.995Z,23.25
2023-03-24T06:14:53.192Z,10.32
2023-03-24T06:17:21.441Z,16.25
2023-03-24T06:19:51.898Z,15.13
2023-03-24T06:22:43.224Z,13.73
2023-03-24T06:25:15.324Z,25.80
2023-03-24T06:27:50.314Z,15.27
2023-03-24T06:30:24.167Z,19.00
2023-03-24T06:32:52.713Z,16.08
2023-03-24T06:35:26.055Z,12.80
2023-03-24T06:38:08.002Z,18.17
2023-03-24T06:40:37.300Z,15.25
2023-03-24T06:43:06.003Z,19.75
2023-03-24T06:45:41.598Z,17.42
2023-03-24T06:51:08.226Z,18.00
2023-03-24T06:53:38.828Z,8.90
2023-03-24T06:56:06.447Z,20.77
2023-03-24T06:58:48.592Z,13.63
2023-03-24T07:01:21.275Z,18.65
2023-03-24T07:04:19.539Z,21.20
2023-03-24T07:07:22.526Z,18.83
2023-03-24T07:09:59.819Z,14.70
2023-03-24T07:12:26.996Z,21.13
2023-03-24T07:14:55.728Z,11.45
2023-03-24T07:17:45.410Z,14.40
2023-03-24T07:20:20.742Z,14.27
2023-03-24T07:22:57.639Z,12.15
2023-03-24T07:26:06.067Z,19.20
2023-03-24T07:28:49.446Z,21.08
2023-03-24T07:31:42.974Z,12.23
2023-03-24T07:34:22.765Z,15.32
2023-03-24T07:36:52.309Z,14.65
2023-03-24T07:42:09.901Z,14.73
2023-03-24T07:45:00.971Z,7.57
2023-03-24T07:47:31.951Z,13.77
2023-03-24T07:50:03.564Z,13.10
2023-03-24T07:52:32.508Z,13.73
2023-03-24T07:55:02.066Z,18.33
2023-03-24T07:57:52.554Z,16.65
2023-03-24T08:00:21.683Z,13.70
2023-03-24T08:03:19.776Z,12.32
2023-03-24T08:05:48.863Z,12.82
2023-03-24T08:11:21.598Z,10.45
2023-03-24T08:16:46.448Z,14.15
2023-03-24T08:19:13.661Z,17.65
2023-03-24T08:21:45.142Z,15.07
2023-03-24T08:24:13.923Z,19.90
2023-03-24T08:26:52.185Z,12.38
2023-03-24T08:29:25.824Z,12.95
2023-03-24T08:31:58.452Z,15.15
2023-03-24T08:34:32.358Z,16.67
2023-03-24T08:36:59.314Z,11.75
2023-03-24T08:39:26.575Z,16.33
2023-03-24T08:41:54.952Z,15.20
2023-03-24T08:44:21.880Z,12.07
2023-03-24T08:46:54.137Z,15.88
2023-03-24T08:49:21.578Z,15.85
2023-03-24T08:51:49.100Z,12.52
2023-03-24T08:57:32.840Z,18.05
2023-03-24T09:00:03.157Z,13.65
2023-03-24T09:02:32.873Z,18.25
2023-03-24T09:05:02.002Z,18.42
2023-03-24T09:07:29.148Z,20.02
2023-03-24T09:10:00.314Z,16.75
2023-03-24T09:12:28.839Z,16.60
2023-03-24T09:14:59.230Z,14.00
2023-03-24T09:17:29.480Z,17.80
2023-03-24T09:19:57.534Z,11.95
2023-03-24T09:25:11.280Z,13.05
2023-03-24T09:27:38.922Z,16.20
2023-03-24T09:30:08.018Z,18.63
2023-03-24T09:32:41.194Z,11.77
2023-03-24T09:35:09.579Z,14.30
2023-03-24T09:37:38.620Z,14.02
2023-03-24T09:40:23.819Z,15.05
2023-03-24T09:43:19.150Z,9.63
2023-03-24T09:45:54.584Z,18.23
2023-03-24T09:48:50.434Z,10.63
2023-03-24T09:51:28.902Z,17.48
2023-03-24T09:54:18.880Z,9.32
2023-03-24T09:56:48.761Z,21.38
2023-03-24T09:59:28.351Z,21.17
2023-03-24T10:01:56.688Z,20.98
2023-03-24T10:04:26.807Z,18.83
2023-03-24T10:07:09.246Z,4.88
2023-03-24T10:09:37.916Z,15.90
2023-03-24T10:12:28.583Z,12.98
2023-03-24T10:15:09.827Z,12.25
2023-03-24T10:17:59.224Z,14.07
2023-03-24T10:20:47.665Z,13.20
2023-03-24T10:23:34.759Z,4.72
2023-03-24T10:26:38.503Z,10.00
2023-03-24T10:29:31.229Z,11.63
2023-03-24T10:32:02.708Z,11.10
2023-03-24T10:34:34.172Z,15.27
2023-03-24T10:40:14.163Z,17.02
2023-03-24T10:42:43.658Z,16.02
2023-03-24T10:45:39.427Z,7.03
2023-03-24T10:48:07.672Z,12.93
2023-03-24T10:50:36.557Z,18.85
2023-03-24T10:53:19.608Z,11.63
2023-03-24T10:55:48.174Z,8.52
2023-03-24T10:58:38.733Z,7.25
2023-03-24T11:01:21.734Z,17.05
2023-03-24T11:03:49.899Z,16.15
2023-03-24T11:06:21.935Z,12.10
2023-03-24T11:09:08.829Z,18.15
2023-03-24T11:11:37.195Z,4.43
2023-03-24T11:14:04.704Z,12.13
2023-03-24T11:16:38.083Z,12.18
2023-03-24T11:19:18.654Z,9.57
2023-03-24T11:21:47.901Z,15.40
2023-03-24T11:24:20.570Z,14.13
2023-03-24T11:27:03.934Z,9.07
2023-03-24T11:29:35.252Z,13.57
2023-03-24T11:32:05.529Z,8.65
2023-03-24T11:34:42.146Z,13.23
2023-03-24T11:37:20.132Z,13.30
2023-03-24T11:40:13.913Z,11.23
2023-03-24T11:43:13.111Z,10.50
2023-03-24T11:45:44.213Z,7.32
2023-03-24T11:48:32.241Z,9.70
2023-03-24T11:51:00.511Z,9.35
2023-03-24T11:54:00.577Z,11.13
2023-03-24T11:56:30.710Z,13.63
2023-03-24T11:59:19.485Z,12.50
2023-03-24T12:01:59.725Z,12.52
2023-03-24T12:04:55.959Z,10.65
2023-03-24T12:07:47.943Z,9.65
2023-03-24T12:10:36.284Z,14.40
2023-03-24T12:13:31.777Z,12.43
2023-03-24T12:16:23.795Z,9.82
2023-03-24T12:18:57.903Z,12.75
2023-03-24T12:21:39.468Z,11.32
2023-03-24T12:24:21.708Z,19.75
2023-03-24T12:26:56.042Z,13.93
2023-03-24T12:29:54.015Z,13.65
2023-03-24T12:33:10.985Z,11.32
2023-03-24T12:36:04.124Z,11.63
2023-03-24T12:39:03.325Z,13.63
2023-03-24T12:41:50.618Z,7.00
2023-03-24T12:44:38.207Z,10.68
2023-03-24T12:47:21.387Z,11.85
2023-03-24T12:50:11.346Z,13.00
2023-03-24T12:55:59.834Z,8.77
2023-03-24T12:58:40.199Z,9.98
2023-03-24T13:01:33.840Z,5.57
2023-03-24T13:04:23.687Z,12.00
2023-03-24T13:07:12.104Z,10.20
2023-03-24T13:10:14.419Z,13.43
2023-03-24T13:13:02.470Z,10.43
2023-03-24T13:15:41.232Z,5.53
2023-03-24T13:18:39.849Z,8.38
2023-03-24T13:21:16.251Z,6.20
2023-03-24T13:24:13.612Z,7.53
2023-03-24T13:27:20.052Z,6.47
2023-03-24T13:30:23.094Z,7.65
2023-03-24T13:32:57.442Z,7.25
2023-03-24T13:35:46.836Z,9.73
2023-03-24T13:38:46.951Z,6.53
2023-03-24T13:41:32.139Z,12.07
2023-03-24T13:44:02.756Z,10.13
2023-03-24T13:46:38.079Z,9.77
2023-03-24T13:49:14.071Z,9.20
2023-03-24T13:51:48.191Z,10.32
2023-03-24T13:54:37.478Z,8.20
2023-03-24T13:57:19.655Z,10.63
2023-03-24T14:00:23.356Z,13.05
2023-03-24T14:07:37.171Z,16.70
2023-03-24T14:10:26.917Z,9.68
2023-03-24T14:12:58.858Z,10.02
2023-03-24T14:15:41.815Z,11.18
2023-03-24T14:18:38.308Z,8.25
2023-03-24T14:21:11.655Z,11.18
2023-03-24T14:23:46.839Z,7.68
2023-03-24T14:26:23.470Z,11.73
2023-03-24T14:31:36.641Z,11.65
2023-03-24T14:34:24.649Z,7.55
2023-03-24T14:37:18.554Z,9.90
2023-03-24T14:39:48.237Z,11.73
2023-03-24T14:42:48.149Z,10.65
2023-03-24T14:45:55.792Z,11.50
2023-03-24T14:49:11.470Z,7.00
2023-03-24T14:52:14.639Z,5.68
2023-03-24T14:55:16.748Z,12.25
2023-03-24T14:57:51.687Z,8.27
2023-03-24T15:00:40.924Z,5.05
2023-03-24T15:03:32.362Z,3.30
2023-03-24T15:09:36.146Z,5.32
2023-03-24T15:12:11.947Z,5.25
2023-03-24T15:14:43.112Z,6.72
2023-03-24T15:17:39.785Z,7.43
2023-03-24T15:20:08.117Z,6.50
2023-03-24T15:23:22.802Z,4.35
2023-03-24T15:25:56.359Z,5.00
2023-03-24T15:28:30.825Z,7.63
2023-03-24T15:31:02.846Z,7.07
2023-03-24T15:34:11.155Z,4.00
2023-03-24T15:37:04.129Z,8.80
2023-03-24T15:39:41.241Z,6.57
2023-03-24T15:42:26.702Z,4.65
2023-03-24T15:46:12.099Z,11.63
2023-03-24T15:48:52.472Z,4.28
2023-03-24T15:51:20.809Z,7.10
2023-03-24T15:53:58.468Z,5.40
2023-03-24T15:56:31.826Z,5.35
2023-03-24T15:59:15.318Z,9.45
2023-03-24T16:01:50.660Z,5.70
2023-03-24T16:04:21.459Z,7.43
2023-03-24T16:06:58.022Z,7.75
2023-03-24T16:09:56.580Z,8.30
2023-03-24T16:12:24.252Z,6.40
2023-03-24T16:14:52.145Z,9.20
2023-03-24T16:17:22.149Z,8.95
2023-03-24T16:20:09.761Z,7.22
2023-03-24T16:22:36.884Z,5.13
2023-03-24T16:25:09.437Z,10.45
2023-03-24T16:27:39.928Z,10.68
2023-03-24T16:30:35.480Z,6.32
2023-03-24T16:36:28.156Z,11.93
2023-03-24T16:39:32.816Z,10.90
2023-03-24T16:42:10.292Z,9.88
2023-03-24T16:44:37.996Z,5.90
2023-03-24T16:47:10.857Z,13.27
2023-03-24T16:49:38.421Z,6.38
2023-03-24T16:52:12.111Z,9.55
2023-03-24T16:54:40.036Z,4.22
2023-03-24T16:57:09.272Z,10.38
2023-03-24T17:00:02.366Z,5.03
2023-03-24T17:02:29.660Z,6.10
2023-03-24T17:06:04.917Z,8.90
2023-03-24T17:08:48.355Z,4.32
2023-03-24T17:14:56.165Z,5.38
2023-03-24T17:18:17.735Z,2.55
2023-03-24T17:21:01.464Z,3.83
2023-03-24T17:23:57.751Z,3.58
2023-03-24T17:26:35.658Z,4.10
2023-03-24T17:29:16.909Z,3.53
2023-03-24T17:32:29.108Z,1.40
2023-03-24T17:34:59.657Z,4.07
2023-03-24T17:37:51.254Z,1.38
2023-03-24T17:40:20.978Z,2.38
2023-03-24T17:42:49.605Z,3.30
2023-03-24T17:45:22.842Z,3.13
2023-03-24T17:47:51.715Z,2.75
2023-03-24T17:50:49.525Z,4.05
2023-03-24T17:53:30.136Z,1.95
2023-03-24T17:56:05.649Z,2.45
2023-03-24T17:58:36.855Z,5.05
2023-03-24T18:01:35.233Z,4.28
2023-03-24T18:04:05.704Z,5.28
2023-03-24T18:06:34.567Z,5.32
2023-03-24T18:09:04.625Z,4.38
2023-03-24T18:11:33.900Z,3.25
2023-03-24T19:00:15.064Z,4.22
2023-03-24T19:02:42.275Z,3.17
2023-03-24T19:05:14.290Z,3.75
2023-03-24T19:07:42.617Z,4.15
2023-03-24T19:10:10.316Z,3.30
2023-03-24T19:12:37.510Z,3.10
2023-03-24T19:15:05.896Z,1.88
2023-03-24T19:17:33.428Z,4.78
2023-03-24T19:20:01.225Z,3.92
2023-03-24T19:22:31.185Z,4.57
2023-03-24T19:24:58.486Z,5.45
2023-03-24T19:27:27.568Z,6.07
2023-03-24T19:29:57.280Z,6.93
2023-03-24T19:32:24.528Z,7.15
2023-03-24T19:34:53.716Z,7.88
2023-03-24T19:37:23.208Z,10.45
2023-03-24T19:39:53.014Z,5.28
2023-03-24T19:42:20.334Z,9.43
2023-03-24T19:44:48.860Z,9.93
2023-03-24T19:47:16.658Z,12.38
2023-03-24T19:49:45.265Z,9.00
2023-03-24T19:52:14.587Z,9.23
2023-03-24T19:54:42.876Z,10.02
2023-03-24T19:57:15.507Z,9.50
2023-03-24T19:59:45.040Z,9.10
2023-03-24T20:02:19.007Z,9.50
2023-03-24T20:04:48.651Z,6.65
2023-03-24T20:07:15.908Z,10.77
2023-03-24T20:09:43.057Z,11.73
2023-03-24T20:12:16.488Z,13.75
2023-03-24T20:14:45.457Z,12.55
2023-03-24T20:17:22.115Z,10.63
2023-03-24T20:19:50.104Z,9.95
2023-03-24T20:22:17.546Z,11.25
2023-03-24T20:24:49.744Z,9.82
2023-03-24T20:27:18.053Z,7.97
2023-03-24T20:29:46.464Z,12.85
2023-03-24T20:32:19.121Z,10.35
2023-03-24T20:34:49.325Z,11.30
2023-03-24T20:37:20.034Z,10.73
2023-03-24T20:39:47.197Z,8.35
2023-03-24T20:42:14.475Z,8.43
2023-03-24T20:44:43.074Z,11.32
2023-03-24T20:47:12.314Z,13.82
2023-03-24T20:49:51.211Z,10.50
2023-03-24T20:52:26.138Z,9.48
2023-03-24T20:55:05.975Z,10.93
2023-03-24T20:57:37.867Z,6.55
2023-03-24T21:00:14.029Z,3.72
2023-03-24T21:02:43.290Z,3.03
2023-03-24T21:05:10.962Z,6.82
2023-03-24T21:07:43.178Z,4.22
2023-03-24T21:10:10.765Z,2.83
2023-03-24T21:12:52.787Z,5.93
2023-03-24T21:15:27.532Z,6.80
2023-03-24T21:17:59.000Z,4.28
2023-03-24T21:20:27.036Z,3.92
2023-03-24T21:22:55.789Z,4.35
2023-03-24T21:25:28.119Z,3.17
2023-03-24T21:27:56.501Z,3.60
2023-03-24T21:30:28.796Z,4.70
2023-03-24T21:32:58.530Z,5.07
2023-03-24T21:35:26.332Z,3.47
2023-03-24T21:37:54.662Z,5.60
2023-03-24T21:40:25.638Z,6.85
2023-03-24T21:42:54.014Z,3.17
2023-03-24T21:45:24.123Z,7.10
2023-03-24T21:47:55.702Z,8.20
2023-03-24T21:50:23.780Z,4.00
2023-03-24T21:52:53.142Z,10.93
2023-03-24T21:55:22.120Z,5.75
2023-03-24T21:57:50.663Z,8.20
2023-03-24T22:00:26.732Z,5.38
2023-03-24T22:03:02.543Z,9.65
2023-03-24T22:05:38.884Z,6.50
2023-03-24T22:08:12.444Z,10.70
2023-03-24T22:10:43.661Z,8.07
2023-03-24T22:13:11.075Z,13.52
2023-03-24T22:15:39.330Z,7.47
2023-03-24T22:18:06.556Z,4.00
2023-03-24T22:20:34.307Z,10.80
2023-03-24T22:23:03.715Z,8.10
2023-03-24T22:25:32.106Z,11.43
2023-03-24T22:28:00.542Z,9.38
2023-03-24T22:30:28.714Z,10.10
2023-03-24T22:32:57.943Z,9.32
2023-03-24T22:35:29.818Z,7.75
2023-03-24T22:37:57.680Z,6.72
2023-03-24T22:40:26.146Z,10.13
2023-03-24T22:42:54.529Z,11.18
2023-03-24T22:45:27.790Z,6.65
2023-03-24T22:47:55.318Z,4.88
2023-03-24T22:50:25.327Z,13.85
2023-03-24T22:52:52.710Z,14.13
2023-03-24T22:55:20.201Z,6.60
2023-03-24T22:57:54.362Z,7.18
2023-03-24T23:00:26.643Z,9.18
2023-03-24T23:02:53.837Z,12.13
2023-03-24T23:05:29.747Z,10.30
2023-03-24T23:07:59.822Z,8.52
2023-03-24T23:10:34.947Z,9.82
2023-03-24T23:13:04.936Z,5.72
2023-03-24T23:15:33.917Z,4.65
2023-03-24T23:18:01.650Z,3.85
2023-03-24T23:20:32.339Z,10.80
2023-03-24T23:23:05.119Z,7.90
2023-03-24T23:25:43.301Z,3.08
2023-03-24T23:28:14.370Z,6.00
2023-03-24T23:30:47.597Z,6.43
2023-03-24T23:33:16.419Z,6.33
2023-03-24T23:35:44.560Z,7.43
2023-03-24T23:38:11.645Z,6.88
2023-03-24T23:40:39.929Z,3.83
2023-03-24T23:43:11.414Z,5.15
2023-03-24T23:45:48.171Z,4.00
2023-03-24T23:48:15.711Z,5.72
2023-03-24T23:50:50.743Z,6.28
2023-03-24T23:53:18.058Z,5.60
2023-03-24T23:55:58.204Z,6.00
2023-03-24T23:58:30.630Z,4.85
